Terminal Aerodrome Forecast
Issued by NWS Hastings, NE

Home | Current Version | Previous Version | Text Only | Print | Product List | Glossary On
Versions: 1 2 3 4 5 6 7 8 9 10 11 12 13 14 15 16 17 18 19 20
000
FTUS45 KGID 251132
TAFEAR
TAF
KEAR 251132Z 2512/2612 31010KT P6SM BKN070
     FM251300 VRB06KT P6SM SCT080
     FM252100 23008KT P6SM SCT040
     FM260200 VRB06KT P6SM SKC
      AMD LTD TO CLD VIS AND WIND=

USA.gov is the U.S. government's official web portal to all federal, state and local government web resources and services.